Time;durP1;ratioP1;P1;durP2;ratioP2;P2;SDS_P1;SDS_P2;PMS_P1;PMS_P2;Temp;Humidity;BMP_temperature;BMP_pressure;BME280_temperature;BME280_humidity;BME280_pressure;Samples;Min_cycle;Max_cycle;Signal;HPM_P1;HPM_P2
2022/05/28 00:00:40;;;;;;;10.40;1.90;;;;;;;-148.88;77.65;76256.63;5035412;28;20071;-88
2022/05/28 00:03:05;;;;;;;9.60;2.03;;;;;;;-148.88;77.80;76254.59;5035529;28;20032;-85
2022/05/28 00:05:31;;;;;;;7.05;1.80;;;;;;;-148.88;78.30;76256.63;5017929;28;20037;-86
2022/05/28 00:07:57;;;;;;;11.57;2.30;;;;;;;-148.88;77.31;76238.34;5036552;28;20056;-88
2022/05/28 00:10:22;;;;;;;11.73;2.67;;;;;;;-148.88;77.58;76238.34;5018059;28;20029;-88
2022/05/28 00:12:48;;;;;;;7.72;2.28;;;;;;;-148.88;77.15;76228.19;5035371;28;20029;-86
2022/05/28 00:15:14;;;;;;;11.68;2.30;;;;;;;-148.88;76.94;76213.97;5035214;28;20025;-85
2022/05/28 00:17:40;;;;;;;8.98;2.20;;;;;;;-148.88;77.02;76209.91;5035481;28;20033;-87
2022/05/28 00:20:06;;;;;;;11.77;2.03;;;;;;;-148.88;76.79;76216.00;5017811;28;20032;-86
2022/05/28 00:22:39;;;;;;;9.40;1.80;;;;;;;-148.88;77.08;76216.00;5018156;28;20021;-87
2022/05/28 00:25:06;;;;;;;10.48;1.90;;;;;;;-148.88;77.64;76207.88;5035119;28;20025;-86
2022/05/28 00:27:31;;;;;;;13.35;1.90;;;;;;;-148.88;77.41;76220.06;5017682;28;20211;-87
2022/05/28 00:29:56;;;;;;;8.43;2.03;;;;;;;-148.88;77.70;76228.19;5017489;28;20117;-85
2022/05/28 00:32:22;;;;;;;9.30;1.95;;;;;;;-148.88;78.45;76232.25;5019607;28;20505;-85
2022/05/28 00:34:48;;;;;;;8.82;2.20;;;;;;;-148.88;77.89;76226.16;5019242;28;20067;-85
2022/05/28 00:37:13;;;;;;;11.00;2.25;;;;;;;-148.88;77.86;76211.94;5018758;28;20037;-87
2022/05/28 00:39:38;;;;;;;11.30;2.13;;;;;;;-148.88;77.82;76211.94;5035482;28;20033;-86
2022/05/28 00:42:04;;;;;;;10.73;2.00;;;;;;;-148.88;78.17;76222.09;5035595;28;20026;-88
2022/05/28 00:44:29;;;;;;;14.40;2.10;;;;;;;-148.88;78.43;76232.25;5035213;28;20017;-86
2022/05/28 00:46:56;;;;;;;11.35;2.42;;;;;;;-148.88;77.97;76218.03;5035241;28;20060;-87
2022/05/28 00:49:26;;;;;;;12.73;2.58;;;;;;;-148.88;78.67;76224.13;5017022;28;20022;-87
2022/05/28 00:51:54;;;;;;;10.23;2.05;;;;;;;-148.88;79.89;76248.50;5017408;28;20052;-90
2022/05/28 00:54:20;;;;;;;10.82;2.35;;;;;;;-148.88;80.07;76252.56;5034608;28;20056;-89
2022/05/28 00:56:45;;;;;;;10.25;2.08;;;;;;;-148.88;80.29;76248.50;5034683;28;20029;-88
2022/05/28 00:59:11;;;;;;;9.93;2.00;;;;;;;-148.88;80.73;76256.63;5034022;28;20395;-89
2022/05/28 01:01:41;;;;;;;11.57;2.40;;;;;;;-148.88;81.63;76276.94;5017212;28;20032;-87
2022/05/28 01:04:31;;;;;;;7.93;2.72;;;;;;;-148.88;81.53;76260.69;5018033;28;20029;-88
2022/05/28 01:07:27;;;;;;;10.93;2.20;;;;;;;-148.88;81.36;76262.72;5016620;28;20025;-87
2022/05/28 01:10:21;;;;;;;12.45;2.35;;;;;;;-148.88;81.90;76270.84;5016793;28;20025;-89
2022/05/28 01:12:59;;;;;;;18.45;3.03;;;;;;;-148.88;81.74;76270.84;5034288;28;20029;-88
2022/05/28 01:15:33;;;;;;;13.68;2.58;;;;;;;-148.88;81.96;76268.81;5016345;28;20083;-88
2022/05/28 01:18:11;;;;;;;11.20;2.30;;;;;;;-148.88;81.99;76264.75;5017390;28;20029;-88
2022/05/28 01:20:48;;;;;;;14.68;2.35;;;;;;;-148.88;82.78;76274.91;5033969;28;20502;-88
2022/05/28 01:23:21;;;;;;;14.00;2.80;;;;;;;-148.88;82.66;76264.75;5034011;28;20045;-88
2022/05/28 01:25:49;;;;;;;14.23;2.63;;;;;;;-148.88;82.51;76260.69;5034570;28;20025;-88
2022/05/28 01:28:19;;;;;;;7.50;2.20;;;;;;;-148.88;82.35;76268.81;5034005;28;20492;-87
2022/05/28 01:30:46;;;;;;;11.93;2.50;;;;;;;-148.88;82.89;76266.78;5017114;28;20013;-87
2022/05/28 01:33:14;;;;;;;14.13;2.50;;;;;;;-148.88;82.49;76248.50;5016556;28;20060;-89
2022/05/28 01:35:41;;;;;;;9.63;2.53;;;;;;;-148.88;82.96;76264.75;5016081;28;20032;-87
2022/05/28 01:38:09;;;;;;;14.40;2.95;;;;;;;-148.88;82.74;76264.75;5016459;28;20021;-87
2022/05/28 01:40:35;;;;;;;6.85;2.30;;;;;;;-148.88;83.26;76281.00;5015953;28;20029;-87
2022/05/28 01:43:07;;;;;;;10.05;2.42;;;;;;;-148.88;83.78;76274.91;5016639;28;20136;-85
2022/05/28 01:45:34;;;;;;;11.10;2.63;;;;;;;-148.88;84.10;76281.00;5016305;28;20447;-87
2022/05/28 01:48:04;;;;;;;13.88;2.70;;;;;;;-148.88;83.60;76258.66;5033679;28;20064;-86
2022/05/28 01:50:35;;;;;;;10.80;2.15;;;;;;;-148.88;83.89;76268.81;5033801;28;20382;-88
2022/05/28 01:53:04;;;;;;;10.63;2.35;;;;;;;-148.88;84.14;76268.81;5033475;28;20033;-86
2022/05/28 01:55:35;;;;;;;11.05;2.30;;;;;;;-148.88;84.61;76270.84;5016031;28;20021;-86
2022/05/28 01:58:00;;;;;;;8.63;2.53;;;;;;;-148.88;84.26;76268.81;5016415;28;20108;-87
2022/05/28 02:00:26;;;;;;;13.35;2.53;;;;;;;-148.88;84.51;76268.81;5033605;28;20109;-86
2022/05/28 02:02:53;;;;;;;12.65;2.45;;;;;;;-148.88;85.49;76289.13;5015791;28;20028;-87
2022/05/28 02:05:18;;;;;;;12.13;2.30;;;;;;;-148.88;84.98;76268.81;5016036;28;20017;-86
2022/05/28 02:07:44;;;;;;;11.23;2.70;;;;;;;-148.88;86.13;76293.19;5033340;28;20048;-86
2022/05/28 02:10:15;;;;;;;11.52;2.42;;;;;;;-148.88;86.30;76289.13;5014886;28;20083;-89
2022/05/28 02:12:48;;;;;;;9.52;2.53;;;;;;;-148.88;86.15;76293.19;5033347;28;20025;-88
2022/05/28 02:15:39;;;;;;;10.60;2.22;;;;;;;-148.88;86.91;76299.28;5015569;28;20116;-86
2022/05/28 02:18:04;;;;;;;12.80;2.47;;;;;;;-148.88;87.25;76301.31;5015587;28;20057;-85
2022/05/28 02:20:50;;;;;;;9.17;2.43;;;;;;;-148.88;86.77;76297.25;5033352;28;20076;-85
2022/05/28 02:23:23;;;;;;;8.00;2.15;;;;;;;-148.88;87.21;76305.38;5015840;28;20700;-86
2022/05/28 02:26:00;;;;;;;8.90;2.30;;;;;;;-148.88;86.90;76301.31;5033272;28;20057;-88
2022/05/28 02:28:28;;;;;;;9.30;2.28;;;;;;;-148.88;86.75;76309.44;5015812;28;20479;-87
2022/05/28 02:31:02;;;;;;;12.15;2.42;;;;;;;-148.88;86.48;76301.31;5033180;28;20057;-86
2022/05/28 02:33:28;;;;;;;7.78;2.30;;;;;;;-148.88;86.82;76311.47;5033183;28;20025;-85
2022/05/28 02:35:54;;;;;;;5.68;1.90;;;;;;;-148.88;87.13;76311.47;5015445;28;20040;-86
2022/05/28 02:38:19;;;;;;;9.30;2.50;;;;;;;-148.88;87.11;76301.31;5015361;28;20017;-88
2022/05/28 02:40:45;;;;;;;8.43;1.90;;;;;;;-148.88;86.72;76315.53;5015438;28;20033;-88
2022/05/28 02:43:11;;;;;;;9.82;2.28;;;;;;;-148.88;86.23;76315.53;5015382;28;20029;-90
2022/05/28 02:45:37;;;;;;;8.40;2.15;;;;;;;-148.88;86.26;76317.56;5015977;28;20557;-89
2022/05/28 02:48:03;;;;;;;8.75;1.70;;;;;;;-148.88;85.62;76311.47;5015774;28;20022;-84
2022/05/28 02:50:28;;;;;;;9.13;1.77;;;;;;;-148.88;86.03;76321.63;5033048;28;20028;-86
2022/05/28 02:52:55;;;;;;;7.13;1.55;;;;;;;-148.88;85.65;76319.59;5015260;28;20072;-86
2022/05/28 02:55:21;;;;;;;6.00;1.45;;;;;;;-148.88;85.52;76305.38;5015636;28;20062;-86
2022/05/28 02:57:46;;;;;;;7.75;1.40;;;;;;;-148.88;85.47;76303.34;5033323;28;20029;-86
2022/05/28 03:00:14;;;;;;;5.25;1.27;;;;;;;-148.88;85.76;76301.31;5033324;28;20074;-87
2022/05/28 03:02:41;;;;;;;10.68;1.70;;;;;;;-148.88;85.59;76297.25;5015260;28;20025;-88
2022/05/28 03:05:06;;;;;;;5.47;1.27;;;;;;;-148.88;86.05;76299.28;5033074;28;20064;-84
2022/05/28 03:07:32;;;;;;;5.82;1.40;;;;;;;-148.88;86.05;76289.13;5015307;28;20525;-86
2022/05/28 03:09:57;;;;;;;7.10;1.75;;;;;;;-148.88;86.69;76291.16;5032933;28;20088;-85
2022/05/28 03:12:22;;;;;;;6.80;1.90;;;;;;;-148.88;86.96;76301.31;5015273;28;20018;-85
2022/05/28 03:14:47;;;;;;;5.97;1.58;;;;;;;-148.88;87.13;76299.28;5015236;28;20030;-88
2022/05/28 03:17:13;;;;;;;5.75;1.67;;;;;;;-148.88;87.70;76303.34;5032848;28;20025;-86
2022/05/28 03:19:38;;;;;;;8.65;1.40;;;;;;;-148.88;88.29;76317.56;5015237;28;20048;-85
2022/05/28 03:22:03;;;;;;;7.38;1.88;;;;;;;-148.88;88.47;76301.31;5017050;28;20033;-88
2022/05/28 03:24:29;;;;;;;9.75;2.35;;;;;;;-148.88;88.42;76297.25;5036390;28;20025;-89
2022/05/28 03:26:57;;;;;;;5.53;2.25;;;;;;;-148.88;89.28;76321.63;5018991;28;20032;-87
2022/05/28 03:29:23;;;;;;;10.75;2.60;;;;;;;-148.88;89.95;76325.69;5018455;28;20033;-87
2022/05/28 03:31:48;;;;;;;9.52;2.08;;;;;;;-148.88;90.37;76325.69;5018430;28;20024;-86
2022/05/28 03:34:13;;;;;;;10.98;2.45;;;;;;;-148.88;91.85;76346.00;5018268;28;20540;-88
2022/05/28 03:36:39;;;;;;;12.32;2.63;;;;;;;-148.88;91.19;76346.00;5018349;28;20036;-87
2022/05/28 03:39:04;;;;;;;8.25;2.33;;;;;;;-148.88;92.09;76354.13;5018385;28;20482;-83
2022/05/28 03:41:29;;;;;;;8.52;2.70;;;;;;;-148.88;92.02;76350.06;5035989;28;20029;-87
2022/05/28 03:43:55;;;;;;;8.30;2.50;;;;;;;-148.88;92.19;76362.25;5018440;28;20033;-85
2022/05/28 03:46:32;;;;;;;10.68;2.50;;;;;;;-148.88;92.25;76362.25;5036401;28;20029;-89
2022/05/28 03:49:06;;;;;;;9.68;2.65;;;;;;;-148.88;92.76;76366.31;5035796;28;20471;-87
2022/05/28 03:51:31;;;;;;;9.07;2.83;;;;;;;-148.88;92.67;76370.38;5036394;28;20025;-89
2022/05/28 03:53:57;;;;;;;10.50;2.42;;;;;;;-148.88;92.74;76370.38;5018210;28;20028;-89
2022/05/28 03:56:27;;;;;;;9.30;2.65;;;;;;;-148.88;92.83;76370.38;5036110;28;20022;-89
2022/05/28 03:58:53;;;;;;;8.30;2.03;;;;;;;-148.88;92.85;76378.50;5035986;28;20467;-87
2022/05/28 04:01:18;;;;;;;8.30;2.08;;;;;;;-148.88;92.76;76370.38;5018007;28;20132;-90
2022/05/28 04:03:44;;;;;;;7.43;2.30;;;;;;;-148.88;92.78;76366.31;5036172;28;20112;-87
2022/05/28 04:06:10;;;;;;;10.75;2.97;;;;;;;-148.88;92.64;76378.50;5018070;28;20028;-87
2022/05/28 04:08:35;;;;;;;6.75;1.95;;;;;;;-148.88;92.73;76376.47;5035862;28;20028;-87
2022/05/28 04:11:01;;;;;;;8.27;2.05;;;;;;;-148.88;92.00;76368.34;5018277;28;20108;-89
2022/05/28 04:13:26;;;;;;;13.50;2.20;;;;;;;-148.88;92.42;76374.44;5035829;28;20018;-89
2022/05/28 04:15:52;;;;;;;8.23;2.10;;;;;;;-148.88;92.92;76388.66;5017610;28;20021;-88
2022/05/28 04:18:18;;;;;;;11.07;2.50;;;;;;;-148.88;93.55;76398.81;5017687;28;20027;-87
2022/05/28 04:20:43;;;;;;;9.90;2.28;;;;;;;-148.88;93.77;76394.75;5035417;28;20052;-89
2022/05/28 04:23:09;;;;;;;8.75;1.98;;;;;;;-148.88;91.93;76378.50;5017778;28;20021;-88
2022/05/28 04:25:34;;;;;;;7.53;2.05;;;;;;;-148.88;92.71;76392.72;5035173;28;20151;-88
2022/05/28 04:27:59;;;;;;;6.80;2.17;;;;;;;-148.88;93.17;76392.72;5017509;28;20548;-85
2022/05/28 04:30:25;;;;;;;8.75;2.00;;;;;;;-148.88;93.07;76398.81;5035299;28;20119;-88
2022/05/28 04:32:50;;;;;;;9.98;2.33;;;;;;;-148.88;93.24;76394.75;5016541;28;20029;-90
2022/05/28 04:35:16;;;;;;;12.43;2.45;;;;;;;-148.88;92.36;76392.72;5035455;28;20026;-87
2022/05/28 04:37:41;;;;;;;12.00;2.42;;;;;;;-148.88;91.48;76388.66;5018143;28;20474;-87
2022/05/28 04:40:10;;;;;;;6.88;2.10;;;;;;;-148.88;91.06;76392.72;5035079;28;20482;-87
2022/05/28 04:42:36;;;;;;;10.80;3.00;;;;;;;-148.88;91.01;76384.59;5017789;28;20030;-89
2022/05/28 04:45:01;;;;;;;7.20;1.83;;;;;;;-148.88;90.78;76382.56;5034973;28;20100;-86
2022/05/28 04:47:26;;;;;;;11.05;2.10;;;;;;;-148.88;90.19;76386.63;5034754;28;20101;-86
2022/05/28 04:49:52;;;;;;;12.52;2.10;;;;;;;-148.88;90.68;76390.69;5034699;28;20482;-87
2022/05/28 04:52:17;;;;;;;6.85;1.90;;;;;;;-148.88;90.65;76386.63;5034855;28;20025;-85
2022/05/28 04:54:42;;;;;;;9.35;1.90;;;;;;;-148.88;90.21;76382.56;5035182;28;20052;-86
2022/05/28 04:57:08;;;;;;;9.88;1.80;;;;;;;-148.88;89.87;76368.34;5016847;28;20028;-85
2022/05/28 04:59:35;;;;;;;8.70;2.15;;;;;;;-148.88;87.96;76354.13;5034629;28;20075;-86
2022/05/28 05:02:01;;;;;;;10.07;2.33;;;;;;;-148.88;87.48;76343.97;5017430;28;20061;-84
2022/05/28 05:04:26;;;;;;;7.78;2.25;;;;;;;-148.88;87.12;76337.88;5017041;28;20033;-82
2022/05/28 05:06:52;;;;;;;8.15;1.85;;;;;;;-148.88;86.23;76354.13;5017539;28;20371;-85
2022/05/28 05:09:20;;;;;;;6.15;1.80;;;;;;;-148.88;86.18;76350.06;5017087;28;20036;-86
2022/05/28 05:11:45;;;;;;;11.05;2.13;;;;;;;-148.88;86.76;76358.19;5016814;28;20059;-84
2022/05/28 05:14:11;;;;;;;11.80;2.08;;;;;;;-148.88;86.62;76356.16;5034642;28;20021;-84
2022/05/28 05:16:36;;;;;;;6.20;1.58;;;;;;;-148.88;86.48;76354.13;5016784;28;20029;-88
2022/05/28 05:19:01;;;;;;;13.30;1.88;;;;;;;-148.88;85.49;76346.00;5034635;28;20482;-86
2022/05/28 05:21:26;;;;;;;9.55;2.00;;;;;;;-148.88;85.64;76333.81;5034054;28;20025;-87
2022/05/28 05:23:55;;;;;;;12.82;2.45;;;;;;;-148.88;84.77;76329.75;5034175;28;20103;-85
2022/05/28 05:26:21;;;;;;;9.88;1.80;;;;;;;-148.88;83.62;76321.63;5016915;28;20109;-85
2022/05/28 05:28:47;;;;;;;13.88;1.70;;;;;;;-148.88;83.40;76319.59;5019917;28;20041;-86
2022/05/28 05:31:13;;;;;;;11.60;2.10;;;;;;;-148.88;83.54;76321.63;5036218;28;20075;-86
2022/05/28 05:33:39;;;;;;;11.18;1.90;;;;;;;-148.88;82.47;76305.38;5018120;28;20029;-85
2022/05/28 05:36:05;;;;;;;7.85;2.42;;;;;;;-148.88;82.12;76311.47;5018717;28;20079;-84
2022/05/28 05:38:30;;;;;;;10.05;1.95;;;;;;;-148.88;82.04;76307.41;5017525;28;20029;-86
2022/05/28 05:40:59;;;;;;;10.02;1.98;;;;;;;-148.88;82.06;76291.16;5018439;28;20056;-84
2022/05/28 05:43:27;;;;;;;7.55;1.70;;;;;;;-148.88;81.47;76295.22;5037230;28;20509;-83
2022/05/28 05:45:58;;;;;;;10.88;2.03;;;;;;;-148.88;81.15;76281.00;5019412;28;20025;-83
2022/05/28 05:48:28;;;;;;;9.02;1.60;;;;;;;-148.88;80.34;76281.00;5026254;28;20013;-83
2022/05/28 05:50:54;;;;;;;9.45;2.20;;;;;;;-148.88;80.11;76272.88;5058277;28;20030;-85
2022/05/28 05:53:20;;;;;;;12.30;1.98;;;;;;;-148.88;80.87;76272.88;5056722;28;20028;-84
2022/05/28 05:55:46;;;;;;;8.38;1.85;;;;;;;-148.88;80.94;76285.06;5022672;28;20025;-84
2022/05/28 05:58:12;;;;;;;9.98;1.73;;;;;;;-148.88;80.28;76305.38;5041798;28;20056;-84
2022/05/28 06:00:39;;;;;;;8.43;1.92;;;;;;;-148.88;80.42;76319.59;5026229;28;20025;-83
2022/05/28 06:03:05;;;;;;;8.25;1.88;;;;;;;-148.88;81.31;76313.50;5026249;28;20036;-87
2022/05/28 06:05:34;;;;;;;8.20;1.80;;;;;;;-148.88;79.96;76313.50;5027199;28;20014;-85
2022/05/28 06:08:01;;;;;;;10.05;1.92;;;;;;;-148.88;78.77;76289.13;5042814;28;20036;-84
2022/05/28 06:10:26;;;;;;;9.30;1.80;;;;;;;-148.88;78.78;76283.03;5021466;28;20029;-83
2022/05/28 06:12:53;;;;;;;7.70;1.35;;;;;;;-148.88;77.89;76287.09;5039245;28;20025;-81
2022/05/28 06:15:19;;;;;;;9.45;1.73;;;;;;;-148.88;76.82;76272.88;5023360;28;20034;-84
2022/05/28 06:17:44;;;;;;;6.63;1.60;;;;;;;-148.88;78.20;76281.00;5022393;28;20035;-84
2022/05/28 06:20:12;;;;;;;11.30;1.80;;;;;;;-148.88;77.83;76256.63;5039822;28;20433;-84
2022/05/28 06:22:37;;;;;;;8.65;1.60;;;;;;;-148.88;76.74;76244.44;5040083;28;20049;-82
2022/05/28 06:25:13;;;;;;;8.43;1.80;;;;;;;-148.88;76.84;76236.31;5040049;28;20403;-82
2022/05/28 06:27:39;;;;;;;9.10;1.88;;;;;;;-148.88;76.94;76220.06;5021279;28;20025;-81
2022/05/28 06:30:05;;;;;;;10.48;1.70;;;;;;;-148.88;75.73;76230.22;5021017;28;20494;-82
2022/05/28 06:32:31;;;;;;;9.50;1.92;;;;;;;-148.88;77.38;76232.25;5018370;28;20028;-82
2022/05/28 06:34:56;;;;;;;10.10;2.17;;;;;;;-148.88;77.04;76228.19;5033247;28;20096;-81
2022/05/28 06:37:22;;;;;;;11.40;1.90;;;;;;;-148.88;76.71;76226.16;5015712;28;20025;-81
2022/05/28 06:39:47;;;;;;;7.38;1.90;;;;;;;-148.88;76.56;76240.38;5016543;28;20119;-83
2022/05/28 06:42:12;;;;;;;9.98;2.40;;;;;;;-148.88;76.50;76240.38;5033313;28;20034;-82
2022/05/28 06:44:37;;;;;;;7.75;1.70;;;;;;;-148.88;76.62;76226.16;5015704;28;20371;-83
2022/05/28 06:47:03;;;;;;;11.88;2.08;;;;;;;-148.88;74.96;76224.13;5033712;28;20018;-82
2022/05/28 06:49:31;;;;;;;13.25;2.13;;;;;;;-148.88;76.62;76272.88;5016056;28;20033;-82
2022/05/28 06:51:56;;;;;;;8.13;2.30;;;;;;;-148.88;78.71;76297.25;5017950;28;20045;-82
2022/05/28 06:54:28;;;;;;;9.63;1.90;;;;;;;-148.88;80.32;76285.06;5036761;28;20427;-83
2022/05/28 06:56:55;;;;;;;13.52;2.25;;;;;;;-148.88;81.99;76295.22;5037923;28;20080;-81
2022/05/28 06:59:23;;;;;;;7.28;1.83;;;;;;;-148.88;85.25;76337.88;5022869;28;20017;-85
2022/05/28 07:01:48;;;;;;;15.95;2.40;;;;;;;-148.88;86.99;76368.34;5041084;28;20450;-83
2022/05/28 07:04:14;;;;;;;10.95;2.42;;;;;;;-148.88;89.04;76374.44;5042462;28;20025;-82
2022/05/28 07:06:39;;;;;;;8.93;2.30;;;;;;;-148.88;89.80;76378.50;5040760;28;20422;-80
2022/05/28 07:09:07;;;;;;;8.05;2.28;;;;;;;-148.88;90.66;76394.75;5021667;28;20026;-82
2022/05/28 07:11:36;;;;;;;13.65;2.83;;;;;;;-148.88;91.97;76378.50;5037233;28;20074;-82
2022/05/28 07:14:03;;;;;;;8.80;2.28;;;;;;;-148.88;92.41;76350.06;5037292;28;20064;-83
2022/05/28 07:16:29;;;;;;;11.70;2.42;;;;;;;-148.88;91.85;76343.97;5037507;28;20025;-82
2022/05/28 07:18:54;;;;;;;10.50;3.20;;;;;;;-148.88;92.61;76337.88;5019045;28;20033;-83
2022/05/28 07:21:20;;;;;;;12.45;3.22;;;;;;;-148.88;92.54;76348.03;5037079;28;20025;-83
2022/05/28 07:23:45;;;;;;;11.77;2.47;;;;;;;-148.88;91.96;76333.81;5019037;28;20120;-82
2022/05/28 07:26:13;;;;;;;13.63;3.08;;;;;;;-148.88;93.44;76325.69;5037021;28;20087;-81
2022/05/28 07:28:40;;;;;;;18.58;3.13;;;;;;;-148.88;92.26;76313.50;5038099;28;20406;-84
2022/05/28 07:31:11;;;;;;;11.45;2.40;;;;;;;-148.88;90.12;76295.22;5039456;28;20049;-84
2022/05/28 07:33:41;;;;;;;19.67;3.17;;;;;;;-148.88;91.20;76252.56;5020593;28;20029;-84
2022/05/28 07:36:09;;;;;;;16.52;2.92;;;;;;;-148.88;85.67;76240.38;5021017;28;20018;-85
2022/05/28 07:38:41;;;;;;;15.02;2.70;;;;;;;-148.88;87.78;76203.81;5024228;28;20564;-83
2022/05/28 07:41:10;;;;;;;9.35;2.30;;;;;;;-148.88;85.72;76175.38;5025751;28;20037;-84
2022/05/28 07:43:36;;;;;;;11.18;2.00;;;;;;;-148.88;81.39;76163.19;5039796;28;20036;-85
2022/05/28 07:46:17;;;;;;;8.73;2.22;;;;;;;-148.88;79.43;76183.50;5038186;28;20155;-83
2022/05/28 07:48:43;;;;;;;9.57;1.70;;;;;;;-148.88;79.31;76189.59;5018304;28;20509;-84
2022/05/28 07:51:09;;;;;;;8.20;2.08;;;;;;;-148.88;78.28;76195.69;5019026;28;20030;-84
2022/05/28 07:53:35;;;;;;;6.90;2.03;;;;;;;-148.88;77.32;76187.56;5036810;28;20061;-85
2022/05/28 07:56:05;;;;;;;12.65;2.65;;;;;;;-148.88;76.18;76203.81;5036306;28;20037;-84
2022/05/28 07:58:31;;;;;;;6.75;1.70;;;;;;;-148.88;75.62;76193.66;5018153;28;20025;-86
2022/05/28 08:00:57;;;;;;;8.65;2.35;;;;;;;-148.88;76.42;76177.41;5036785;28;20018;-83
2022/05/28 08:03:23;;;;;;;11.90;2.20;;;;;;;-148.88;78.35;76181.47;5037544;28;20383;-86
2022/05/28 08:05:50;;;;;;;9.50;2.08;;;;;;;-148.88;77.15;76175.38;5041313;28;20479;-85
2022/05/28 08:08:17;;;;;;;6.80;1.70;;;;;;;-148.88;76.68;76179.44;5021580;28;20033;-85
2022/05/28 08:10:48;;;;;;;8.80;1.92;;;;;;;-148.88;75.67;76179.44;5021740;28;20048;-85
2022/05/28 08:13:16;;;;;;;11.18;2.25;;;;;;;-148.88;74.55;76171.31;5021356;28;20017;-86
2022/05/28 08:15:43;;;;;;;12.43;2.17;;;;;;;-148.88;71.50;76134.72;5022108;28;20355;-83
2022/05/28 08:18:11;;;;;;;9.98;2.20;;;;;;;-148.88;68.86;76104.25;5041078;28;20079;-85
2022/05/28 08:23:20;;;;;;;12.88;2.25;;;;;;;-148.88;68.89;76029.09;5038238;28;20048;-86
2022/05/28 08:25:52;;;;;;;9.75;2.45;;;;;;;-148.88;66.21;76037.22;5017598;28;20406;-84
2022/05/28 08:28:27;;;;;;;10.65;2.10;;;;;;;-148.88;68.49;76025.03;5017669;28;20040;-84
2022/05/28 08:30:53;;;;;;;9.57;2.15;;;;;;;-148.88;66.16;75966.13;5016448;28;20060;-88
2022/05/28 08:33:23;;;;;;;12.00;2.15;;;;;;;-148.88;67.96;75953.94;5017684;28;20052;-86
2022/05/28 08:35:50;;;;;;;10.75;1.95;;;;;;;-148.88;65.62;75972.22;5035206;28;20108;-90
2022/05/28 08:38:21;;;;;;;8.57;2.10;;;;;;;-148.88;66.16;75976.28;5017708;28;20033;-88
2022/05/28 08:40:57;;;;;;;6.00;1.60;;;;;;;-148.88;65.33;75970.19;5018081;28;20497;-86
2022/05/28 08:43:33;;;;;;;8.10;1.70;;;;;;;-148.88;64.49;75992.53;5018695;28;20475;-83
2022/05/28 08:45:58;;;;;;;7.75;2.00;;;;;;;-148.88;66.06;76045.34;5019843;28;20079;-86
2022/05/28 08:48:49;;;;;;;8.27;1.80;;;;;;;-148.88;67.69;76073.78;5019963;28;20026;-85
2022/05/28 08:51:41;;;;;;;6.90;1.77;;;;;;;-148.88;69.71;76094.09;5021889;28;20026;-85
2022/05/28 08:54:28;;;;;;;6.78;1.60;;;;;;;-148.88;73.22;76187.56;5019680;28;20033;-86
2022/05/28 08:56:57;;;;;;;7.65;1.83;;;;;;;-148.88;78.92;76254.59;5020409;28;20112;-85
2022/05/28 08:59:45;;;;;;;6.75;1.40;;;;;;;-148.88;84.24;76293.19;5037427;28;20400;-85
2022/05/28 09:02:28;;;;;;;9.35;2.38;;;;;;;-148.88;86.62;76313.50;5017498;28;20038;-84
2022/05/28 09:04:57;;;;;;;8.50;2.22;;;;;;;-148.88;85.68;76303.34;5017802;28;20025;-85
2022/05/28 09:07:22;;;;;;;6.60;1.90;;;;;;;-148.88;86.58;76311.47;5017230;28;20060;-85
2022/05/28 09:09:51;;;;;;;7.00;1.50;;;;;;;-148.88;87.38;76321.63;5035401;28;20045;-86
2022/05/28 09:12:39;;;;;;;7.05;1.65;;;;;;;-148.88;88.80;76327.72;5035024;28;20056;-86
2022/05/28 09:15:08;;;;;;;9.60;2.20;;;;;;;-148.88;88.92;76360.22;5033576;28;20029;-84
2022/05/28 09:17:47;;;;;;;6.20;1.95;;;;;;;-148.88;91.32;76358.19;5019212;28;20025;-85
2022/05/28 09:20:27;;;;;;;9.77;1.90;;;;;;;-148.88;88.92;76366.31;5035322;28;20132;-86
2022/05/28 09:23:05;;;;;;;;;;;;;;;;;;;;;
2022/05/28 09:25:59;;;;;;;9.88;2.28;;;;;;;-148.88;92.23;76323.66;5037912;28;20104;-85
2022/05/28 09:29:06;;;;;;;6.95;2.03;;;;;;;-148.88;91.25;76297.25;5015883;28;20043;-85
2022/05/28 09:31:44;;;;;;;12.38;2.70;;;;;;;-148.88;88.46;76295.22;5019099;28;20113;-86
2022/05/28 09:34:27;;;;;;;6.63;1.95;;;;;;;-148.88;86.05;76260.69;5021045;28;20055;-85
2022/05/28 09:37:31;;;;;;;11.38;2.40;;;;;;;-148.88;87.93;76193.66;5019934;28;20041;-84
2022/05/28 09:40:45;;;;;;;10.18;2.17;;;;;;;-148.88;82.20;76132.72;5017186;28;20148;-85
2022/05/28 09:43:52;;;;;;;7.80;2.55;;;;;;;-148.88;82.74;76065.66;4930759;28;20524;-83
2022/05/28 09:47:09;;;;;;;5.18;1.70;;;;;;;-148.88;78.77;76049.41;5016442;28;20091;-84
2022/05/28 09:50:14;;;;;;;7.93;1.92;;;;;;;-148.88;77.86;76102.22;4919066;29;20561;-84
2022/05/28 09:54:16;;;;;;;6.50;2.45;;;;;;;-148.88;81.14;76203.81;4920132;29;20379;-84
2022/05/28 09:55:55;;;;;;;6.60;1.83;;;;;;;-148.88;81.61;76274.91;5031381;28;20040;-86
2022/05/28 09:58:34;;;;;;;5.72;1.40;;;;;;;-148.88;84.29;76327.72;5017909;28;20487;-86
2022/05/28 10:01:34;;;;;;;6.25;1.45;;;;;;;-148.88;87.92;76341.94;5018937;28;20436;-88
2022/05/28 10:06:52;;;;;;;7.00;1.50;;;;;;;-148.88;89.46;76307.41;5037527;28;20112;-86
2022/05/28 10:09:39;;;;;;;3.55;1.10;;;;;;;-148.88;91.81;76281.00;5020592;28;20529;-85
2022/05/28 10:12:20;;;;;;;3.47;1.30;;;;;;;-148.88;91.91;76236.31;5020212;28;20425;-86
2022/05/28 10:14:59;;;;;;;5.13;1.23;;;;;;;-148.88;88.93;76205.84;5035290;28;20478;-87
2022/05/28 10:17:35;;;;;;;2.85;0.77;;;;;;;-148.88;87.87;76163.19;5015836;28;20394;-85
2022/05/28 10:20:14;;;;;;;4.40;1.20;;;;;;;-148.88;87.99;76106.28;5029065;28;20128;-84
2022/05/28 10:22:40;;;;;;;4.85;1.40;;;;;;;-148.88;83.30;76071.75;5035128;28;20046;-84
2022/05/28 10:25:23;;;;;;;5.70;1.45;;;;;;;-148.88;81.26;76004.72;5019400;28;20029;-85
2022/05/28 10:27:55;;;;;;;8.43;1.80;;;;;;;-148.88;82.56;75943.78;5018354;28;20021;-85
2022/05/28 10:30:23;;;;;;;6.18;1.95;;;;;;;-148.88;75.84;75960.03;5016400;28;20267;-86
2022/05/28 10:32:51;;;;;;;8.43;1.90;;;;;;;-148.88;76.76;75943.78;5021332;28;20028;-86
2022/05/28 10:35:31;;;;;;;8.38;1.80;;;;;;;-148.88;78.38;75943.78;5022229;28;20040;-87
2022/05/28 10:38:12;;;;;;;6.15;1.50;;;;;;;-148.88;78.94;76083.94;5021487;28;20033;-86
2022/05/28 10:41:26;;;;;;;9.68;1.65;;;;;;;-148.88;80.72;76161.16;5041088;28;20117;-85
2022/05/28 10:43:52;;;;;;;5.43;2.00;;;;;;;-148.88;82.31;76175.38;4923842;29;20035;-85
2022/05/28 10:46:40;;;;;;;6.85;1.80;;;;;;;-148.88;85.17;76185.53;4924885;29;20402;-85
2022/05/28 10:49:51;;;;;;;6.45;1.58;;;;;;;-148.88;88.43;76177.41;5008521;28;20111;-84
2022/05/28 10:52:42;;;;;;;5.03;1.30;;;;;;;-148.88;84.07;76132.72;5020806;28;20026;-85
2022/05/28 10:56:05;;;;;;;9.10;1.70;;;;;;;-148.88;81.12;76069.72;5037111;28;20017;-84
2022/05/28 10:59:02;;;;;;;6.78;1.55;;;;;;;-148.88;81.32;75988.47;4922138;29;20031;-85
2022/05/28 11:01:45;;;;;;;8.63;1.70;;;;;;;-148.88;77.92;75907.22;4917247;29;20119;-88
2022/05/28 11:04:55;;;;;;;6.32;1.77;;;;;;;-148.88;75.14;75874.72;5015634;28;20041;-85
2022/05/28 11:07:40;;;;;;;5.97;1.60;;;;;;;-148.88;72.19;75874.72;5021833;28;20385;-84
2022/05/28 11:10:08;;;;;;;9.55;2.00;;;;;;;-148.88;75.14;75880.81;5020589;28;20064;-85
2022/05/28 11:12:55;;;;;;;7.63;1.73;;;;;;;-148.88;79.55;75982.38;5039886;28;20018;-86
2022/05/28 11:15:44;;;;;;;8.07;3.58;;;;;;;-148.88;89.22;76195.69;5020608;28;20055;-85
2022/05/28 11:18:25;;;;;;;5.78;1.70;;;;;;;-148.88;88.16;76240.38;5042064;28;20029;-83
2022/05/28 11:21:11;;;;;;;;;;;;;;;;;;;;;
2022/05/28 11:23:49;;;;;;;6.35;1.70;;;;;;;-148.88;89.82;76120.53;5040566;28;20077;-85
2022/05/28 11:27:00;;;;;;;7.50;2.17;;;;;;;-148.88;91.07;76002.69;5039150;28;20100;-86
2022/05/28 11:29:43;;;;;;;6.07;2.10;;;;;;;-148.88;84.30;75949.88;5020283;28;20577;-85
2022/05/28 11:32:23;;;;;;;7.93;2.25;;;;;;;-148.88;84.56;75947.84;5018628;28;20025;-85
2022/05/28 11:35:06;;;;;;;10.52;2.55;;;;;;;-148.88;78.45;75998.63;5036841;28;20029;-84
2022/05/28 11:37:44;;;;;;;6.25;2.00;;;;;;;-148.88;83.62;75955.97;5018912;28;20482;-84
2022/05/28 11:40:27;;;;;;;9.73;2.08;;;;;;;-148.88;83.10;75856.44;5019129;28;20064;-85
2022/05/28 11:43:05;;;;;;;6.40;2.07;;;;;;;-148.88;80.72;75785.34;5036639;28;20479;-85